Waseca, Saskatchewan

Past 24 Hour Conditions

This table is a summary of hourly weather conditions for the past 24 hours. This summary includes the following parameters: temperature, humidity, dew point, wind speed and direction, air pressure, visibility and/or wind chill and humidex.
Date / Time
(CST)
Conditions Temp (°F) Humidity (%) Dew Point (°F) Wind (mph) Pressure (inches) Visibility (miles)
23 April 2014
1:00 N/A 48 66 37 ESE 17 gust 25 29.5 N/A
00:00 N/A 50 67 39 ESE 17 gust 25 29.5 N/A
22 April 2014
23:00 N/A 50 67 40 ESE 19 gust 27 29.6 N/A
22:00 N/A 51 68 41 E 15 gust 25 29.6 N/A
21:00 N/A 53 60 40 E 15 gust 21 29.6 N/A
20:00 N/A 56 55 40 E 17 gust 24 29.6 N/A
19:00 N/A 59 47 39 E 19 gust 27 29.6 N/A
18:00 N/A 63 35 35 E 23 gust 31 29.6 N/A
17:00 N/A 64 33 35 E 18 gust 28 29.6 N/A
16:00 N/A 66   30 34 E 16 gust 28 29.6 N/A
15:00 N/A 63 31 32 E 18 29.6 N/A
14:00 N/A N/A N/A N/A N/A N/A N/A
13:00 N/A N/A N/A N/A N/A N/A N/A
12:00 N/A 57 44 35 E 14 29.7 N/A
11:00 N/A 52 50 34 ESE 11 29.7 N/A
10:00 N/A 49 54 33 E 7 29.8 N/A
9:00 N/A 45 60 32 E 7 29.8 N/A
8:00 N/A 39 75 32 E 6 29.8 N/A
7:00 N/A 37 79 31 ESE 4 29.8 N/A
6:00 N/A 36   81 31 E 4 29.8 N/A
5:00 N/A 38 78 31 E 5 29.8 N/A
4:00 N/A 39 74 32 ESE 2 29.8 N/A
3:00 N/A 42 68 32 SSE 5 29.9 N/A
2:00 N/A 42 66 32 SSE 7 29.9 N/A
1:00 N/A 43 64 32 S 6 29.9 N/A
N/A
Not available
 ↑ 
Highest temperature
 ↓ 
Lowest temperature

If you require additional historical weather information, please visit Climate Data Online.